sensor_id;sensor_type;location;lat;lon;timestamp;P1;durP1;ratioP1;P2;durP2;ratioP2
36689;SDS011;22676;51.120;3.702;2023-07-22T00:00:43;8.90;;;7.15;;
36689;SDS011;22676;51.120;3.702;2023-07-22T00:03:09;9.73;;;7.38;;
36689;SDS011;22676;51.120;3.702;2023-07-22T00:05:34;9.75;;;7.25;;
36689;SDS011;22676;51.120;3.702;2023-07-22T00:08:00;11.15;;;7.00;;
36689;SDS011;22676;51.120;3.702;2023-07-22T00:10:26;9.68;;;6.70;;
36689;SDS011;22676;51.120;3.702;2023-07-22T00:12:52;8.38;;;6.95;;
36689;SDS011;22676;51.120;3.702;2023-07-22T00:15:17;9.23;;;6.75;;
36689;SDS011;22676;51.120;3.702;2023-07-22T00:17:45;9.30;;;7.22;;
36689;SDS011;22676;51.120;3.702;2023-07-22T00:20:11;8.73;;;6.95;;
36689;SDS011;22676;51.120;3.702;2023-07-22T00:22:40;7.80;;;7.00;;
36689;SDS011;22676;51.120;3.702;2023-07-22T00:25:09;9.07;;;7.00;;
36689;SDS011;22676;51.120;3.702;2023-07-22T00:27:37;9.30;;;6.72;;
36689;SDS011;22676;51.120;3.702;2023-07-22T00:30:04;8.80;;;6.97;;
36689;SDS011;22676;51.120;3.702;2023-07-22T00:32:33;8.20;;;6.88;;
36689;SDS011;22676;51.120;3.702;2023-07-22T00:34:59;10.45;;;6.72;;
36689;SDS011;22676;51.120;3.702;2023-07-22T00:37:25;9.18;;;5.97;;
36689;SDS011;22676;51.120;3.702;2023-07-22T00:39:50;7.03;;;6.32;;
36689;SDS011;22676;51.120;3.702;2023-07-22T00:42:16;8.70;;;6.43;;
36689;SDS011;22676;51.120;3.702;2023-07-22T00:44:42;8.07;;;6.60;;
36689;SDS011;22676;51.120;3.702;2023-07-22T00:47:07;11.05;;;6.55;;
36689;SDS011;22676;51.120;3.702;2023-07-22T00:49:33;8.48;;;6.70;;
36689;SDS011;22676;51.120;3.702;2023-07-22T00:52:01;8.60;;;6.30;;
36689;SDS011;22676;51.120;3.702;2023-07-22T00:54:28;10.20;;;7.00;;
36689;SDS011;22676;51.120;3.702;2023-07-22T00:56:54;9.52;;;7.20;;
36689;SDS011;22676;51.120;3.702;2023-07-22T00:59:22;8.95;;;7.22;;
36689;SDS011;22676;51.120;3.702;2023-07-22T01:01:48;7.40;;;6.30;;
36689;SDS011;22676;51.120;3.702;2023-07-22T01:04:14;8.45;;;6.22;;
36689;SDS011;22676;51.120;3.702;2023-07-22T01:06:42;9.70;;;6.45;;
36689;SDS011;22676;51.120;3.702;2023-07-22T01:09:09;8.43;;;6.75;;
36689;SDS011;22676;51.120;3.702;2023-07-22T01:11:35;9.02;;;6.63;;
36689;SDS011;22676;51.120;3.702;2023-07-22T01:14:00;10.00;;;6.90;;
36689;SDS011;22676;51.120;3.702;2023-07-22T01:16:27;8.80;;;6.57;;
36689;SDS011;22676;51.120;3.702;2023-07-22T01:18:53;13.82;;;7.10;;
36689;SDS011;22676;51.120;3.702;2023-07-22T01:21:20;10.98;;;6.47;;
36689;SDS011;22676;51.120;3.702;2023-07-22T01:23:48;9.95;;;6.90;;
36689;SDS011;22676;51.120;3.702;2023-07-22T01:26:15;9.52;;;6.53;;
36689;SDS011;22676;51.120;3.702;2023-07-22T01:28:41;9.07;;;6.88;;
36689;SDS011;22676;51.120;3.702;2023-07-22T01:31:06;8.07;;;6.60;;
36689;SDS011;22676;51.120;3.702;2023-07-22T01:33:32;11.27;;;6.82;;
36689;SDS011;22676;51.120;3.702;2023-07-22T01:35:59;11.88;;;7.25;;
36689;SDS011;22676;51.120;3.702;2023-07-22T01:38:25;8.02;;;6.68;;
36689;SDS011;22676;51.120;3.702;2023-07-22T01:40:51;9.30;;;6.35;;
36689;SDS011;22676;51.120;3.702;2023-07-22T01:43:16;9.05;;;6.40;;
36689;SDS011;22676;51.120;3.702;2023-07-22T01:45:42;9.95;;;6.68;;
36689;SDS011;22676;51.120;3.702;2023-07-22T01:48:08;11.13;;;6.82;;
36689;SDS011;22676;51.120;3.702;2023-07-22T01:50:33;11.90;;;6.82;;
36689;SDS011;22676;51.120;3.702;2023-07-22T01:52:59;10.93;;;6.90;;
36689;SDS011;22676;51.120;3.702;2023-07-22T01:55:25;9.32;;;7.15;;
36689;SDS011;22676;51.120;3.702;2023-07-22T01:57:50;11.23;;;7.18;;
36689;SDS011;22676;51.120;3.702;2023-07-22T02:00:16;9.07;;;6.60;;
36689;SDS011;22676;51.120;3.702;2023-07-22T02:02:42;11.43;;;6.97;;
36689;SDS011;22676;51.120;3.702;2023-07-22T02:05:08;9.48;;;6.35;;
36689;SDS011;22676;51.120;3.702;2023-07-22T02:07:37;10.18;;;6.32;;
36689;SDS011;22676;51.120;3.702;2023-07-22T02:10:03;10.43;;;7.55;;
36689;SDS011;22676;51.120;3.702;2023-07-22T02:12:30;11.20;;;7.10;;
36689;SDS011;22676;51.120;3.702;2023-07-22T02:14:55;9.80;;;6.30;;
36689;SDS011;22676;51.120;3.702;2023-07-22T02:17:21;9.55;;;6.38;;
36689;SDS011;22676;51.120;3.702;2023-07-22T02:19:47;8.88;;;6.45;;
36689;SDS011;22676;51.120;3.702;2023-07-22T02:22:12;11.05;;;6.47;;
36689;SDS011;22676;51.120;3.702;2023-07-22T02:24:38;9.32;;;6.78;;
36689;SDS011;22676;51.120;3.702;2023-07-22T02:27:04;11.80;;;7.35;;
36689;SDS011;22676;51.120;3.702;2023-07-22T02:29:30;8.20;;;6.60;;
36689;SDS011;22676;51.120;3.702;2023-07-22T02:31:56;9.15;;;7.18;;
36689;SDS011;22676;51.120;3.702;2023-07-22T02:34:22;11.23;;;6.70;;
36689;SDS011;22676;51.120;3.702;2023-07-22T02:36:48;8.68;;;7.15;;
36689;SDS011;22676;51.120;3.702;2023-07-22T02:39:14;11.02;;;7.40;;
36689;SDS011;22676;51.120;3.702;2023-07-22T02:41:40;14.25;;;7.57;;
36689;SDS011;22676;51.120;3.702;2023-07-22T02:44:06;11.15;;;7.43;;
36689;SDS011;22676;51.120;3.702;2023-07-22T02:46:31;11.73;;;7.40;;
36689;SDS011;22676;51.120;3.702;2023-07-22T02:48:57;13.75;;;7.15;;
36689;SDS011;22676;51.120;3.702;2023-07-22T02:51:24;10.25;;;7.20;;
36689;SDS011;22676;51.120;3.702;2023-07-22T02:53:50;12.05;;;7.68;;
36689;SDS011;22676;51.120;3.702;2023-07-22T02:56:15;11.32;;;7.00;;
36689;SDS011;22676;51.120;3.702;2023-07-22T02:58:41;9.63;;;6.80;;
36689;SDS011;22676;51.120;3.702;2023-07-22T03:01:07;10.98;;;7.07;;
36689;SDS011;22676;51.120;3.702;2023-07-22T03:03:34;10.70;;;7.15;;
36689;SDS011;22676;51.120;3.702;2023-07-22T03:06:00;10.90;;;7.60;;
36689;SDS011;22676;51.120;3.702;2023-07-22T03:08:27;9.63;;;6.70;;
36689;SDS011;22676;51.120;3.702;2023-07-22T03:10:53;10.98;;;7.22;;
36689;SDS011;22676;51.120;3.702;2023-07-22T03:13:19;12.55;;;6.75;;
36689;SDS011;22676;51.120;3.702;2023-07-22T03:15:44;11.38;;;7.20;;
36689;SDS011;22676;51.120;3.702;2023-07-22T03:18:10;10.02;;;6.47;;
36689;SDS011;22676;51.120;3.702;2023-07-22T03:20:37;12.88;;;6.80;;
36689;SDS011;22676;51.120;3.702;2023-07-22T03:23:03;9.70;;;6.72;;
36689;SDS011;22676;51.120;3.702;2023-07-22T03:25:30;10.60;;;6.82;;
36689;SDS011;22676;51.120;3.702;2023-07-22T03:27:57;8.45;;;6.00;;
36689;SDS011;22676;51.120;3.702;2023-07-22T03:30:23;9.13;;;6.35;;
36689;SDS011;22676;51.120;3.702;2023-07-22T03:32:49;7.95;;;5.93;;
36689;SDS011;22676;51.120;3.702;2023-07-22T03:35:17;8.93;;;5.53;;
36689;SDS011;22676;51.120;3.702;2023-07-22T03:37:43;8.95;;;5.47;;
36689;SDS011;22676;51.120;3.702;2023-07-22T03:40:09;7.15;;;5.20;;
36689;SDS011;22676;51.120;3.702;2023-07-22T03:42:51;7.53;;;4.97;;
36689;SDS011;22676;51.120;3.702;2023-07-22T03:45:18;17.65;;;5.25;;
36689;SDS011;22676;51.120;3.702;2023-07-22T03:47:45;7.35;;;5.40;;
36689;SDS011;22676;51.120;3.702;2023-07-22T03:50:12;6.40;;;4.93;;
36689;SDS011;22676;51.120;3.702;2023-07-22T03:52:38;6.78;;;5.05;;
36689;SDS011;22676;51.120;3.702;2023-07-22T03:55:03;7.07;;;4.80;;
36689;SDS011;22676;51.120;3.702;2023-07-22T03:57:33;7.25;;;5.10;;
36689;SDS011;22676;51.120;3.702;2023-07-22T03:59:58;6.43;;;4.97;;
36689;SDS011;22676;51.120;3.702;2023-07-22T04:02:24;6.40;;;4.90;;
36689;SDS011;22676;51.120;3.702;2023-07-22T04:04:51;7.43;;;4.78;;
36689;SDS011;22676;51.120;3.702;2023-07-22T04:07:18;5.68;;;4.53;;
36689;SDS011;22676;51.120;3.702;2023-07-22T04:09:44;5.20;;;4.45;;
36689;SDS011;22676;51.120;3.702;2023-07-22T04:12:12;5.70;;;4.70;;
36689;SDS011;22676;51.120;3.702;2023-07-22T04:14:38;5.80;;;4.32;;
36689;SDS011;22676;51.120;3.702;2023-07-22T04:17:04;5.75;;;5.15;;
36689;SDS011;22676;51.120;3.702;2023-07-22T04:19:30;4.97;;;4.40;;
36689;SDS011;22676;51.120;3.702;2023-07-22T04:21:56;9.10;;;4.38;;
36689;SDS011;22676;51.120;3.702;2023-07-22T04:24:22;6.13;;;4.57;;
36689;SDS011;22676;51.120;3.702;2023-07-22T04:26:48;5.00;;;4.18;;
36689;SDS011;22676;51.120;3.702;2023-07-22T04:29:13;5.07;;;4.55;;
36689;SDS011;22676;51.120;3.702;2023-07-22T04:31:39;4.72;;;4.10;;
36689;SDS011;22676;51.120;3.702;2023-07-22T04:34:05;5.18;;;4.25;;
36689;SDS011;22676;51.120;3.702;2023-07-22T04:36:31;4.90;;;4.40;;
36689;SDS011;22676;51.120;3.702;2023-07-22T04:38:56;4.53;;;4.07;;
36689;SDS011;22676;51.120;3.702;2023-07-22T04:41:22;6.97;;;4.28;;
36689;SDS011;22676;51.120;3.702;2023-07-22T04:43:48;5.45;;;4.60;;
36689;SDS011;22676;51.120;3.702;2023-07-22T04:46:15;5.28;;;4.05;;
36689;SDS011;22676;51.120;3.702;2023-07-22T04:48:41;5.50;;;4.40;;
36689;SDS011;22676;51.120;3.702;2023-07-22T04:51:07;4.72;;;4.25;;
36689;SDS011;22676;51.120;3.702;2023-07-22T04:53:32;5.32;;;4.03;;
36689;SDS011;22676;51.120;3.702;2023-07-22T04:55:58;4.53;;;3.85;;
36689;SDS011;22676;51.120;3.702;2023-07-22T04:58:24;5.07;;;4.65;;
36689;SDS011;22676;51.120;3.702;2023-07-22T05:00:50;4.63;;;4.20;;
36689;SDS011;22676;51.120;3.702;2023-07-22T05:03:16;4.55;;;4.15;;
36689;SDS011;22676;51.120;3.702;2023-07-22T05:05:43;4.50;;;4.10;;
36689;SDS011;22676;51.120;3.702;2023-07-22T05:08:08;6.90;;;3.83;;
36689;SDS011;22676;51.120;3.702;2023-07-22T05:10:34;3.95;;;3.65;;
36689;SDS011;22676;51.120;3.702;2023-07-22T05:12:59;5.28;;;4.05;;
36689;SDS011;22676;51.120;3.702;2023-07-22T05:15:25;3.95;;;3.65;;
36689;SDS011;22676;51.120;3.702;2023-07-22T05:17:51;4.30;;;3.90;;
36689;SDS011;22676;51.120;3.702;2023-07-22T05:20:17;4.32;;;3.90;;
36689;SDS011;22676;51.120;3.702;2023-07-22T05:22:42;4.35;;;4.00;;
36689;SDS011;22676;51.120;3.702;2023-07-22T05:25:08;4.07;;;3.63;;
36689;SDS011;22676;51.120;3.702;2023-07-22T05:27:37;4.32;;;3.92;;
36689;SDS011;22676;51.120;3.702;2023-07-22T05:30:05;4.50;;;4.05;;
36689;SDS011;22676;51.120;3.702;2023-07-22T05:32:31;4.93;;;3.97;;
36689;SDS011;22676;51.120;3.702;2023-07-22T05:34:57;3.78;;;3.47;;
36689;SDS011;22676;51.120;3.702;2023-07-22T05:37:23;6.20;;;3.70;;
36689;SDS011;22676;51.120;3.702;2023-07-22T05:39:49;4.28;;;3.88;;
36689;SDS011;22676;51.120;3.702;2023-07-22T05:42:15;4.25;;;3.78;;
36689;SDS011;22676;51.120;3.702;2023-07-22T05:44:42;4.05;;;3.60;;
36689;SDS011;22676;51.120;3.702;2023-07-22T05:47:07;5.32;;;4.00;;
36689;SDS011;22676;51.120;3.702;2023-07-22T05:49:33;6.28;;;3.97;;
36689;SDS011;22676;51.120;3.702;2023-07-22T05:51:58;4.10;;;3.63;;
36689;SDS011;22676;51.120;3.702;2023-07-22T05:54:24;3.70;;;3.40;;
36689;SDS011;22676;51.120;3.702;2023-07-22T05:56:50;4.05;;;3.60;;
36689;SDS011;22676;51.120;3.702;2023-07-22T05:59:15;4.43;;;4.03;;
36689;SDS011;22676;51.120;3.702;2023-07-22T06:01:41;5.00;;;3.30;;
36689;SDS011;22676;51.120;3.702;2023-07-22T06:04:07;3.67;;;3.38;;
36689;SDS011;22676;51.120;3.702;2023-07-22T06:06:33;4.10;;;3.70;;
36689;SDS011;22676;51.120;3.702;2023-07-22T06:08:59;3.53;;;3.22;;
36689;SDS011;22676;51.120;3.702;2023-07-22T06:11:25;4.75;;;3.50;;
36689;SDS011;22676;51.120;3.702;2023-07-22T06:13:51;4.00;;;3.60;;
36689;SDS011;22676;51.120;3.702;2023-07-22T06:16:17;4.22;;;3.55;;
36689;SDS011;22676;51.120;3.702;2023-07-22T06:18:42;3.47;;;3.17;;
36689;SDS011;22676;51.120;3.702;2023-07-22T06:21:08;3.80;;;3.47;;
36689;SDS011;22676;51.120;3.702;2023-07-22T06:23:34;3.17;;;2.90;;
36689;SDS011;22676;51.120;3.702;2023-07-22T06:25:59;3.80;;;3.50;;
36689;SDS011;22676;51.120;3.702;2023-07-22T06:28:25;3.70;;;3.40;;
36689;SDS011;22676;51.120;3.702;2023-07-22T06:30:50;3.50;;;3.20;;
36689;SDS011;22676;51.120;3.702;2023-07-22T06:33:16;3.55;;;3.25;;
36689;SDS011;22676;51.120;3.702;2023-07-22T06:35:42;3.85;;;3.10;;
36689;SDS011;22676;51.120;3.702;2023-07-22T06:38:08;3.15;;;2.90;;
36689;SDS011;22676;51.120;3.702;2023-07-22T06:40:33;3.15;;;2.85;;
36689;SDS011;22676;51.120;3.702;2023-07-22T06:42:59;3.50;;;3.20;;
36689;SDS011;22676;51.120;3.702;2023-07-22T06:45:24;3.63;;;3.30;;
36689;SDS011;22676;51.120;3.702;2023-07-22T06:47:50;3.55;;;3.25;;
36689;SDS011;22676;51.120;3.702;2023-07-22T06:50:16;3.80;;;3.33;;
36689;SDS011;22676;51.120;3.702;2023-07-22T06:52:41;3.00;;;2.80;;
36689;SDS011;22676;51.120;3.702;2023-07-22T06:55:07;3.33;;;3.03;;
36689;SDS011;22676;51.120;3.702;2023-07-22T06:57:33;3.80;;;3.30;;
36689;SDS011;22676;51.120;3.702;2023-07-22T06:59:58;2.95;;;2.75;;
36689;SDS011;22676;51.120;3.702;2023-07-22T07:02:24;3.60;;;2.85;;
36689;SDS011;22676;51.120;3.702;2023-07-22T07:04:50;3.10;;;2.90;;
36689;SDS011;22676;51.120;3.702;2023-07-22T07:07:16;3.08;;;2.88;;
36689;SDS011;22676;51.120;3.702;2023-07-22T07:09:42;4.28;;;2.85;;
36689;SDS011;22676;51.120;3.702;2023-07-22T07:12:08;3.55;;;3.25;;
36689;SDS011;22676;51.120;3.702;2023-07-22T07:14:34;3.42;;;3.13;;
36689;SDS011;22676;51.120;3.702;2023-07-22T07:17:00;4.07;;;3.40;;
36689;SDS011;22676;51.120;3.702;2023-07-22T07:19:27;3.17;;;2.88;;
36689;SDS011;22676;51.120;3.702;2023-07-22T07:21:53;3.50;;;3.20;;
36689;SDS011;22676;51.120;3.702;2023-07-22T07:24:18;3.42;;;2.80;;
36689;SDS011;22676;51.120;3.702;2023-07-22T07:26:44;3.10;;;2.70;;
36689;SDS011;22676;51.120;3.702;2023-07-22T07:29:10;2.90;;;2.67;;
36689;SDS011;22676;51.120;3.702;2023-07-22T07:31:36;3.83;;;2.83;;
36689;SDS011;22676;51.120;3.702;2023-07-22T07:34:03;3.45;;;3.10;;
36689;SDS011;22676;51.120;3.702;2023-07-22T07:36:29;2.90;;;2.70;;
36689;SDS011;22676;51.120;3.702;2023-07-22T07:38:54;5.88;;;2.80;;
36689;SDS011;22676;51.120;3.702;2023-07-22T07:41:20;3.50;;;2.67;;
36689;SDS011;22676;51.120;3.702;2023-07-22T07:43:46;3.40;;;2.80;;
36689;SDS011;22676;51.120;3.702;2023-07-22T07:46:13;3.35;;;2.80;;
36689;SDS011;22676;51.120;3.702;2023-07-22T07:48:45;4.88;;;3.30;;
36689;SDS011;22676;51.120;3.702;2023-07-22T07:51:15;3.33;;;2.88;;
36689;SDS011;22676;51.120;3.702;2023-07-22T07:53:42;5.18;;;2.90;;
36689;SDS011;22676;51.120;3.702;2023-07-22T07:56:14;3.92;;;2.88;;
36689;SDS011;22676;51.120;3.702;2023-07-22T07:58:41;5.03;;;3.20;;
36689;SDS011;22676;51.120;3.702;2023-07-22T08:01:08;7.00;;;3.03;;
36689;SDS011;22676;51.120;3.702;2023-07-22T08:03:34;4.10;;;2.83;;
36689;SDS011;22676;51.120;3.702;2023-07-22T08:06:01;6.78;;;3.58;;
36689;SDS011;22676;51.120;3.702;2023-07-22T08:08:28;5.50;;;2.90;;
36689;SDS011;22676;51.120;3.702;2023-07-22T08:10:57;4.88;;;2.92;;
36689;SDS011;22676;51.120;3.702;2023-07-22T08:13:38;4.30;;;2.50;;
36689;SDS011;22676;51.120;3.702;2023-07-22T08:16:04;3.67;;;2.70;;
36689;SDS011;22676;51.120;3.702;2023-07-22T08:18:31;3.92;;;2.42;;
36689;SDS011;22676;51.120;3.702;2023-07-22T08:20:58;5.93;;;2.67;;
36689;SDS011;22676;51.120;3.702;2023-07-22T08:23:23;7.20;;;2.70;;
36689;SDS011;22676;51.120;3.702;2023-07-22T08:25:49;10.95;;;3.20;;
36689;SDS011;22676;51.120;3.702;2023-07-22T08:28:15;5.85;;;2.90;;
36689;SDS011;22676;51.120;3.702;2023-07-22T08:30:41;8.70;;;3.05;;
36689;SDS011;22676;51.120;3.702;2023-07-22T08:33:08;7.72;;;2.83;;
36689;SDS011;22676;51.120;3.702;2023-07-22T08:35:36;6.35;;;2.58;;
36689;SDS011;22676;51.120;3.702;2023-07-22T08:38:02;4.22;;;2.60;;
36689;SDS011;22676;51.120;3.702;2023-07-22T08:40:38;8.27;;;2.67;;
36689;SDS011;22676;51.120;3.702;2023-07-22T08:43:06;4.35;;;2.60;;
36689;SDS011;22676;51.120;3.702;2023-07-22T08:45:34;4.57;;;2.60;;
36689;SDS011;22676;51.120;3.702;2023-07-22T08:48:06;3.50;;;2.40;;
36689;SDS011;22676;51.120;3.702;2023-07-22T08:53:40;5.05;;;2.75;;
36689;SDS011;22676;51.120;3.702;2023-07-22T08:56:05;3.85;;;2.45;;
36689;SDS011;22676;51.120;3.702;2023-07-22T08:58:31;5.90;;;3.05;;
36689;SDS011;22676;51.120;3.702;2023-07-22T09:00:58;3.47;;;2.25;;
36689;SDS011;22676;51.120;3.702;2023-07-22T09:03:24;5.30;;;2.70;;
36689;SDS011;22676;51.120;3.702;2023-07-22T09:05:50;3.08;;;2.03;;
36689;SDS011;22676;51.120;3.702;2023-07-22T09:08:16;3.95;;;2.00;;
36689;SDS011;22676;51.120;3.702;2023-07-22T09:10:42;3.60;;;2.10;;
36689;SDS011;22676;51.120;3.702;2023-07-22T09:13:08;3.95;;;2.30;;
36689;SDS011;22676;51.120;3.702;2023-07-22T09:15:35;3.97;;;1.80;;
36689;SDS011;22676;51.120;3.702;2023-07-22T09:18:01;3.60;;;1.70;;
36689;SDS011;22676;51.120;3.702;2023-07-22T09:20:31;3.10;;;2.00;;
36689;SDS011;22676;51.120;3.702;2023-07-22T09:22:58;4.10;;;1.90;;
36689;SDS011;22676;51.120;3.702;2023-07-22T09:25:26;3.13;;;1.92;;
36689;SDS011;22676;51.120;3.702;2023-07-22T09:27:53;3.65;;;1.88;;
36689;SDS011;22676;51.120;3.702;2023-07-22T09:30:24;4.05;;;2.10;;
36689;SDS011;22676;51.120;3.702;2023-07-22T09:32:51;3.22;;;1.88;;
36689;SDS011;22676;51.120;3.702;2023-07-22T09:35:46;6.18;;;1.98;;
36689;SDS011;22676;51.120;3.702;2023-07-22T09:38:12;3.30;;;1.63;;
36689;SDS011;22676;51.120;3.702;2023-07-22T09:40:42;6.05;;;2.13;;
36689;SDS011;22676;51.120;3.702;2023-07-22T09:43:11;2.63;;;1.63;;
36689;SDS011;22676;51.120;3.702;2023-07-22T09:45:37;3.72;;;1.90;;
36689;SDS011;22676;51.120;3.702;2023-07-22T09:48:03;5.78;;;1.77;;
36689;SDS011;22676;51.120;3.702;2023-07-22T09:50:29;6.78;;;1.73;;
36689;SDS011;22676;51.120;3.702;2023-07-22T09:52:58;8.68;;;2.10;;
36689;SDS011;22676;51.120;3.702;2023-07-22T09:55:26;9.02;;;2.03;;
36689;SDS011;22676;51.120;3.702;2023-07-22T09:57:56;7.28;;;1.95;;
36689;SDS011;22676;51.120;3.702;2023-07-22T10:00:24;9.00;;;1.75;;
36689;SDS011;22676;51.120;3.702;2023-07-22T10:02:53;9.00;;;2.35;;
36689;SDS011;22676;51.120;3.702;2023-07-22T10:05:21;13.13;;;2.60;;
36689;SDS011;22676;51.120;3.702;2023-07-22T10:07:49;5.97;;;2.60;;
36689;SDS011;22676;51.120;3.702;2023-07-22T10:10:17;8.70;;;2.40;;
36689;SDS011;22676;51.120;3.702;2023-07-22T10:15:14;4.90;;;2.20;;
36689;SDS011;22676;51.120;3.702;2023-07-22T10:17:42;9.13;;;2.40;;
36689;SDS011;22676;51.120;3.702;2023-07-22T10:20:09;6.13;;;2.30;;
36689;SDS011;22676;51.120;3.702;2023-07-22T10:22:40;7.30;;;2.13;;
36689;SDS011;22676;51.120;3.702;2023-07-22T10:25:11;6.90;;;2.38;;
36689;SDS011;22676;51.120;3.702;2023-07-22T10:27:38;6.57;;;2.30;;
36689;SDS011;22676;51.120;3.702;2023-07-22T10:30:06;3.25;;;1.80;;
36689;SDS011;22676;51.120;3.702;2023-07-22T10:32:38;3.88;;;1.98;;
36689;SDS011;22676;51.120;3.702;2023-07-22T10:35:09;4.13;;;1.92;;
36689;SDS011;22676;51.120;3.702;2023-07-22T10:37:37;7.60;;;4.28;;
36689;SDS011;22676;51.120;3.702;2023-07-22T10:48:03;6.60;;;3.15;;
36689;SDS011;22676;51.120;3.702;2023-07-22T10:50:39;5.18;;;2.50;;
36689;SDS011;22676;51.120;3.702;2023-07-22T10:53:50;3.63;;;2.13;;
36689;SDS011;22676;51.120;3.702;2023-07-22T10:58:30;3.33;;;2.10;;
36689;SDS011;22676;51.120;3.702;2023-07-22T11:12:05;3.30;;;1.52;;
36689;SDS011;22676;51.120;3.702;2023-07-22T11:17:09;2.00;;;1.40;;
36689;SDS011;22676;51.120;3.702;2023-07-22T11:19:36;3.08;;;1.75;;
36689;SDS011;22676;51.120;3.702;2023-07-22T11:22:02;2.42;;;1.27;;
36689;SDS011;22676;51.120;3.702;2023-07-22T11:24:28;2.83;;;1.50;;
36689;SDS011;22676;51.120;3.702;2023-07-22T11:26:54;1.67;;;1.20;;
36689;SDS011;22676;51.120;3.702;2023-07-22T11:29:20;3.10;;;1.67;;
36689;SDS011;22676;51.120;3.702;2023-07-22T11:31:46;2.75;;;1.77;;
36689;SDS011;22676;51.120;3.702;2023-07-22T11:34:14;3.20;;;1.63;;
36689;SDS011;22676;51.120;3.702;2023-07-22T11:36:41;2.33;;;1.67;;
36689;SDS011;22676;51.120;3.702;2023-07-22T11:39:11;4.18;;;1.88;;
36689;SDS011;22676;51.120;3.702;2023-07-22T11:41:38;2.87;;;1.60;;
36689;SDS011;22676;51.120;3.702;2023-07-22T11:44:06;3.65;;;1.50;;
36689;SDS011;22676;51.120;3.702;2023-07-22T11:49:27;3.90;;;1.70;;
36689;SDS011;22676;51.120;3.702;2023-07-22T11:51:58;4.07;;;1.60;;
36689;SDS011;22676;51.120;3.702;2023-07-22T11:54:24;2.55;;;1.50;;
36689;SDS011;22676;51.120;3.702;2023-07-22T11:56:49;2.33;;;1.40;;
36689;SDS011;22676;51.120;3.702;2023-07-22T11:59:15;3.17;;;1.67;;
36689;SDS011;22676;51.120;3.702;2023-07-22T12:01:43;4.90;;;1.48;;
36689;SDS011;22676;51.120;3.702;2023-07-22T12:04:11;2.08;;;1.50;;
36689;SDS011;22676;51.120;3.702;2023-07-22T12:06:38;2.15;;;1.30;;
36689;SDS011;22676;51.120;3.702;2023-07-22T12:09:03;4.55;;;1.80;;
36689;SDS011;22676;51.120;3.702;2023-07-22T12:11:31;1.40;;;1.30;;
36689;SDS011;22676;51.120;3.702;2023-07-22T12:14:06;3.17;;;1.58;;
36689;SDS011;22676;51.120;3.702;2023-07-22T12:16:34;2.10;;;1.60;;
36689;SDS011;22676;51.120;3.702;2023-07-22T12:19:02;1.80;;;1.48;;
36689;SDS011;22676;51.120;3.702;2023-07-22T12:21:28;3.05;;;1.73;;
36689;SDS011;22676;51.120;3.702;2023-07-22T12:23:54;2.42;;;1.40;;
36689;SDS011;22676;51.120;3.702;2023-07-22T12:26:20;2.08;;;1.58;;
36689;SDS011;22676;51.120;3.702;2023-07-22T12:28:45;2.33;;;1.40;;
36689;SDS011;22676;51.120;3.702;2023-07-22T12:31:11;2.08;;;1.42;;
36689;SDS011;22676;51.120;3.702;2023-07-22T12:33:37;2.65;;;1.80;;
36689;SDS011;22676;51.120;3.702;2023-07-22T12:36:03;2.55;;;1.42;;
36689;SDS011;22676;51.120;3.702;2023-07-22T12:38:29;2.47;;;1.38;;
36689;SDS011;22676;51.120;3.702;2023-07-22T12:40:56;2.47;;;1.60;;
36689;SDS011;22676;51.120;3.702;2023-07-22T12:43:21;2.95;;;1.45;;
36689;SDS011;22676;51.120;3.702;2023-07-22T12:45:47;1.92;;;1.33;;
36689;SDS011;22676;51.120;3.702;2023-07-22T12:48:13;2.17;;;1.50;;
36689;SDS011;22676;51.120;3.702;2023-07-22T12:50:39;2.28;;;1.50;;
36689;SDS011;22676;51.120;3.702;2023-07-22T12:53:04;2.70;;;1.40;;
36689;SDS011;22676;51.120;3.702;2023-07-22T12:55:30;2.38;;;1.40;;
36689;SDS011;22676;51.120;3.702;2023-07-22T12:57:56;2.28;;;1.65;;
36689;SDS011;22676;51.120;3.702;2023-07-22T13:00:21;3.05;;;1.80;;
36689;SDS011;22676;51.120;3.702;2023-07-22T13:02:47;3.58;;;2.00;;
36689;SDS011;22676;51.120;3.702;2023-07-22T13:05:13;4.18;;;2.10;;
36689;SDS011;22676;51.120;3.702;2023-07-22T13:07:39;4.00;;;2.20;;
36689;SDS011;22676;51.120;3.702;2023-07-22T13:10:05;3.40;;;1.80;;
36689;SDS011;22676;51.120;3.702;2023-07-22T13:12:35;3.53;;;1.92;;
36689;SDS011;22676;51.120;3.702;2023-07-22T13:15:02;7.18;;;1.80;;
36689;SDS011;22676;51.120;3.702;2023-07-22T13:17:28;2.25;;;1.45;;
36689;SDS011;22676;51.120;3.702;2023-07-22T13:19:54;4.35;;;1.77;;
36689;SDS011;22676;51.120;3.702;2023-07-22T13:22:19;3.15;;;1.75;;
36689;SDS011;22676;51.120;3.702;2023-07-22T13:24:45;2.95;;;1.58;;
36689;SDS011;22676;51.120;3.702;2023-07-22T13:27:11;2.63;;;1.67;;
36689;SDS011;22676;51.120;3.702;2023-07-22T13:29:36;2.42;;;1.58;;
36689;SDS011;22676;51.120;3.702;2023-07-22T13:32:02;2.10;;;1.48;;
36689;SDS011;22676;51.120;3.702;2023-07-22T13:34:30;2.22;;;1.45;;
36689;SDS011;22676;51.120;3.702;2023-07-22T13:36:55;2.50;;;1.80;;
36689;SDS011;22676;51.120;3.702;2023-07-22T13:39:21;3.00;;;1.40;;
36689;SDS011;22676;51.120;3.702;2023-07-22T13:41:47;3.47;;;1.60;;
36689;SDS011;22676;51.120;3.702;2023-07-22T13:44:13;10.02;;;2.25;;
36689;SDS011;22676;51.120;3.702;2023-07-22T13:46:39;8.60;;;2.35;;
36689;SDS011;22676;51.120;3.702;2023-07-22T13:49:05;4.45;;;2.00;;
36689;SDS011;22676;51.120;3.702;2023-07-22T13:51:30;2.15;;;1.83;;
36689;SDS011;22676;51.120;3.702;2023-07-22T13:53:56;2.22;;;1.50;;
36689;SDS011;22676;51.120;3.702;2023-07-22T13:56:23;4.85;;;1.95;;
36689;SDS011;22676;51.120;3.702;2023-07-22T13:58:49;4.75;;;2.00;;
36689;SDS011;22676;51.120;3.702;2023-07-22T14:01:14;5.38;;;1.67;;
36689;SDS011;22676;51.120;3.702;2023-07-22T14:03:40;4.97;;;1.83;;
36689;SDS011;22676;51.120;3.702;2023-07-22T14:06:06;7.25;;;1.98;;
36689;SDS011;22676;51.120;3.702;2023-07-22T14:08:33;4.18;;;2.17;;
36689;SDS011;22676;51.120;3.702;2023-07-22T14:10:58;3.17;;;1.90;;
36689;SDS011;22676;51.120;3.702;2023-07-22T14:13:24;8.05;;;1.90;;
36689;SDS011;22676;51.120;3.702;2023-07-22T14:15:50;6.88;;;1.95;;
36689;SDS011;22676;51.120;3.702;2023-07-22T14:18:15;6.47;;;1.70;;
36689;SDS011;22676;51.120;3.702;2023-07-22T14:20:43;4.38;;;1.90;;
36689;SDS011;22676;51.120;3.702;2023-07-22T14:23:09;4.25;;;1.83;;
36689;SDS011;22676;51.120;3.702;2023-07-22T14:25:35;3.20;;;1.80;;
36689;SDS011;22676;51.120;3.702;2023-07-22T14:28:00;7.63;;;1.65;;
36689;SDS011;22676;51.120;3.702;2023-07-22T14:30:26;6.22;;;2.47;;
36689;SDS011;22676;51.120;3.702;2023-07-22T14:32:52;12.20;;;1.80;;
36689;SDS011;22676;51.120;3.702;2023-07-22T14:35:18;5.85;;;1.70;;
36689;SDS011;22676;51.120;3.702;2023-07-22T14:37:43;6.07;;;2.15;;
36689;SDS011;22676;51.120;3.702;2023-07-22T14:40:10;5.97;;;1.55;;
36689;SDS011;22676;51.120;3.702;2023-07-22T14:42:36;4.20;;;1.60;;
36689;SDS011;22676;51.120;3.702;2023-07-22T14:45:01;5.88;;;2.83;;
36689;SDS011;22676;51.120;3.702;2023-07-22T14:47:27;6.07;;;1.92;;
36689;SDS011;22676;51.120;3.702;2023-07-22T14:49:53;4.15;;;1.60;;
36689;SDS011;22676;51.120;3.702;2023-07-22T14:52:19;4.75;;;1.67;;
36689;SDS011;22676;51.120;3.702;2023-07-22T14:54:45;4.10;;;1.70;;
36689;SDS011;22676;51.120;3.702;2023-07-22T14:57:10;5.13;;;1.80;;
36689;SDS011;22676;51.120;3.702;2023-07-22T14:59:36;7.05;;;1.90;;
36689;SDS011;22676;51.120;3.702;2023-07-22T15:02:02;4.57;;;2.08;;
36689;SDS011;22676;51.120;3.702;2023-07-22T15:04:27;6.63;;;1.90;;
36689;SDS011;22676;51.120;3.702;2023-07-22T15:06:53;6.78;;;1.80;;
36689;SDS011;22676;51.120;3.702;2023-07-22T15:09:18;10.93;;;1.63;;
36689;SDS011;22676;51.120;3.702;2023-07-22T15:11:45;4.60;;;1.60;;
36689;SDS011;22676;51.120;3.702;2023-07-22T15:14:11;2.70;;;1.60;;